Time;durP1;ratioP1;P1;durP2;ratioP2;P2;SDS_P1;SDS_P2;PMS_P1;PMS_P2;Temp;Humidity;BMP_temperature;BMP_pressure;BME280_temperature;BME280_humidity;BME280_pressure;Samples;Min_cycle;Max_cycle;Signal;HPM_P1;HPM_P2
2023/05/23 00:02:24;;;;;;;5.67;1.80;;;;;;;;;;4975584;28;20041;-47
2023/05/23 00:04:57;;;;;;;6.95;1.52;;;;;;;;;;4983948;28;20042;-48
2023/05/23 00:07:25;;;;;;;6.65;1.58;;;;;;;;;;4986975;28;20056;-45
2023/05/23 00:09:52;;;;;;;4.70;1.33;;;;;;;;;;4951539;28;20058;-48
2023/05/23 00:12:21;;;;;;;5.18;1.30;;;;;;;;;;4987856;28;20046;-46
2023/05/23 00:14:52;;;;;;;7.63;1.80;;;;;;;;;;4933832;28;20037;-45
2023/05/23 00:17:20;;;;;;;5.40;1.20;;;;;;;;;;4975547;28;20053;-45
2023/05/23 00:19:50;;;;;;;10.07;1.73;;;;;;;;;;4976548;28;20926;-45
2023/05/23 00:22:18;;;;;;;5.68;1.30;;;;;;;;;;4978101;28;20045;-45
2023/05/23 00:24:46;;;;;;;8.77;1.65;;;;;;;;;;4973479;28;20607;-46
2023/05/23 00:27:14;;;;;;;4.33;1.10;;;;;;;;;;4980986;28;20041;-45
2023/05/23 00:29:43;;;;;;;9.38;1.35;;;;;;;;;;4962159;28;20877;-46
2023/05/23 00:32:11;;;;;;;7.38;1.85;;;;;;;;;;4975872;28;20511;-47
2023/05/23 00:34:39;;;;;;;9.63;1.60;;;;;;;;;;4960048;28;20093;-45
2023/05/23 00:37:09;;;;;;;6.63;1.20;;;;;;;;;;4982425;28;20038;-46
2023/05/23 00:39:36;;;;;;;5.67;0.87;;;;;;;;;;4967529;28;20063;-45
2023/05/23 00:42:05;;;;;;;6.97;1.02;;;;;;;;;;4968453;28;20042;-45
2023/05/23 00:44:34;;;;;;;6.93;1.05;;;;;;;;;;4967577;28;20042;-45
2023/05/23 00:47:02;;;;;;;7.93;1.48;;;;;;;;;;4983910;28;20042;-45
2023/05/23 00:49:30;;;;;;;12.98;1.75;;;;;;;;;;4942599;28;20124;-48
2023/05/23 00:51:59;;;;;;;7.33;1.63;;;;;;;;;;4970982;28;20057;-46
2023/05/23 00:54:30;;;;;;;10.82;1.42;;;;;;;;;;4975308;28;20050;-49
2023/05/23 00:57:01;;;;;;;8.98;1.30;;;;;;;;;;4965193;28;20132;-44
2023/05/23 00:59:30;;;;;;;8.93;1.17;;;;;;;;;;4987141;28;20038;-46
2023/05/23 01:01:59;;;;;;;9.65;1.40;;;;;;;;;;4964749;28;20046;-45
2023/05/23 01:04:27;;;;;;;7.13;1.10;;;;;;;;;;4980769;28;20410;-47
2023/05/23 01:06:55;;;;;;;6.13;1.20;;;;;;;;;;4963518;28;20064;-47
2023/05/23 01:09:24;;;;;;;6.57;1.30;;;;;;;;;;4973401;28;20038;-44
2023/05/23 01:12:03;;;;;;;7.35;1.58;;;;;;;;;;4971231;28;20042;-47
2023/05/23 01:14:38;;;;;;;5.85;1.00;;;;;;;;;;4982266;28;20049;-45
2023/05/23 01:17:11;;;;;;;6.53;1.10;;;;;;;;;;4970087;28;20069;-45
2023/05/23 01:19:49;;;;;;;5.07;1.17;;;;;;;;;;4925807;28;20468;-44
2023/05/23 01:22:21;;;;;;;8.90;1.58;;;;;;;;;;4931640;28;20082;-45
2023/05/23 01:24:54;;;;;;;7.80;1.10;;;;;;;;;;4934799;28;20055;-44
2023/05/23 01:27:30;;;;;;;11.18;1.70;;;;;;;;;;4936145;28;20105;-49
2023/05/23 01:30:01;;;;;;;10.00;1.50;;;;;;;;;;4943177;28;20046;-45
2023/05/23 01:32:30;;;;;;;9.57;1.30;;;;;;;;;;4948530;28;20050;-44
2023/05/23 01:34:58;;;;;;;8.52;1.33;;;;;;;;;;4905437;28;20647;-44
2023/05/23 01:37:28;;;;;;;6.82;1.80;;;;;;;;;;4932547;28;20038;-45
2023/05/23 01:39:56;;;;;;;8.77;1.50;;;;;;;;;;4940775;28;20042;-48
2023/05/23 01:42:26;;;;;;;7.77;1.37;;;;;;;;;;4941171;28;20035;-48
2023/05/23 01:44:58;;;;;;;7.43;1.40;;;;;;;;;;4897319;28;20066;-46
2023/05/23 01:47:27;;;;;;;8.15;1.58;;;;;;;;;;4946481;28;20049;-46
2023/05/23 01:49:57;;;;;;;8.25;1.40;;;;;;;;;;4935842;28;20363;-44
2023/05/23 01:52:24;;;;;;;5.78;1.23;;;;;;;;;;4942914;28;20039;-45
2023/05/23 01:54:53;;;;;;;5.77;1.37;;;;;;;;;;4933798;28;20043;-47
2023/05/23 01:57:22;;;;;;;5.90;1.30;;;;;;;;;;4935005;28;20053;-45
2023/05/23 01:59:50;;;;;;;6.47;1.35;;;;;;;;;;4939165;28;20054;-47
2023/05/23 02:02:18;;;;;;;11.25;1.77;;;;;;;;;;4936157;28;20034;-49
2023/05/23 02:04:49;;;;;;;6.38;1.50;;;;;;;;;;4930794;28;20062;-45
2023/05/23 02:07:21;;;;;;;6.70;1.20;;;;;;;;;;4938763;28;20049;-45
2023/05/23 02:09:50;;;;;;;7.55;1.45;;;;;;;;;;4935383;28;20043;-45
2023/05/23 02:12:18;;;;;;;7.90;1.40;;;;;;;;;;4921788;28;20051;-45
2023/05/23 02:14:46;;;;;;;8.52;1.67;;;;;;;;;;4947311;28;20031;-44
2023/05/23 02:17:15;;;;;;;8.18;1.58;;;;;;;;;;4937511;28;20035;-47
2023/05/23 02:19:43;;;;;;;6.23;1.20;;;;;;;;;;4968739;28;20583;-45
2023/05/23 02:22:12;;;;;;;5.57;1.50;;;;;;;;;;4976439;28;20096;-45
2023/05/23 02:24:42;;;;;;;9.15;1.75;;;;;;;;;;4987726;28;20104;-47
2023/05/23 02:27:10;;;;;;;9.90;1.63;;;;;;;;;;4943011;28;20046;-46
2023/05/23 02:29:37;;;;;;;7.80;1.38;;;;;;;;;;4978537;28;20078;-46
2023/05/23 02:32:07;;;;;;;7.77;1.67;;;;;;;;;;4983578;28;20069;-44
2023/05/23 02:34:35;;;;;;;6.30;1.40;;;;;;;;;;4955401;28;20054;-46
2023/05/23 02:37:02;;;;;;;5.93;1.40;;;;;;;;;;4979126;28;20042;-48
2023/05/23 02:39:35;;;;;;;6.70;1.50;;;;;;;;;;4945192;28;20383;-44
2023/05/23 02:42:03;;;;;;;7.93;1.55;;;;;;;;;;4975526;28;20038;-45
2023/05/23 02:44:31;;;;;;;9.33;1.50;;;;;;;;;;4971541;28;20125;-44
2023/05/23 02:47:00;;;;;;;8.52;1.42;;;;;;;;;;4969900;28;20046;-45
2023/05/23 02:49:28;;;;;;;10.75;1.25;;;;;;;;;;4962966;28;20634;-45
2023/05/23 02:51:56;;;;;;;7.13;1.30;;;;;;;;;;4978697;28;20046;-44
2023/05/23 02:54:24;;;;;;;5.47;1.50;;;;;;;;;;4966650;28;20038;-47
2023/05/23 02:56:54;;;;;;;8.13;1.60;;;;;;;;;;4968595;28;20543;-44
2023/05/23 02:59:22;;;;;;;7.65;1.98;;;;;;;;;;4968598;28;20103;-44
2023/05/23 03:01:50;;;;;;;9.27;1.60;;;;;;;;;;4976951;28;20039;-46
2023/05/23 03:04:18;;;;;;;7.05;1.60;;;;;;;;;;4972460;28;20662;-47
2023/05/23 03:06:46;;;;;;;8.45;1.63;;;;;;;;;;4980658;28;20037;-45
2023/05/23 03:09:15;;;;;;;8.67;1.53;;;;;;;;;;4977356;28;20233;-44
2023/05/23 03:11:43;;;;;;;4.68;1.23;;;;;;;;;;4986514;28;20041;-46
2023/05/23 03:14:13;;;;;;;10.63;1.67;;;;;;;;;;4958717;28;20054;-45
2023/05/23 03:16:41;;;;;;;6.47;1.60;;;;;;;;;;4984058;28;20396;-48
2023/05/23 03:19:08;;;;;;;6.05;1.80;;;;;;;;;;4978933;28;20050;-46
2023/05/23 03:21:37;;;;;;;9.97;2.03;;;;;;;;;;4971309;28;20042;-44
2023/05/23 03:24:05;;;;;;;9.40;1.77;;;;;;;;;;4974262;28;20049;-46
2023/05/23 03:26:32;;;;;;;5.72;1.58;;;;;;;;;;4986146;28;20729;-47
2023/05/23 03:29:01;;;;;;;7.88;1.70;;;;;;;;;;4979931;28;20428;-45
2023/05/23 03:31:30;;;;;;;9.13;1.50;;;;;;;;;;4967971;28;20544;-45
2023/05/23 03:33:58;;;;;;;6.17;1.60;;;;;;;;;;4980701;28;20038;-46
2023/05/23 03:36:27;;;;;;;5.78;1.67;;;;;;;;;;4962484;28;20034;-44
2023/05/23 03:38:54;;;;;;;6.63;1.92;;;;;;;;;;4983419;28;20042;-50
2023/05/23 03:41:23;;;;;;;10.25;1.75;;;;;;;;;;4963670;28;20488;-45
2023/05/23 03:43:51;;;;;;;8.63;1.50;;;;;;;;;;4983527;28;20424;-45
2023/05/23 03:46:19;;;;;;;6.50;1.50;;;;;;;;;;4963658;28;20066;-44
2023/05/23 03:48:50;;;;;;;7.30;2.40;;;;;;;;;;4981861;28;20104;-45
2023/05/23 03:51:18;;;;;;;7.10;1.67;;;;;;;;;;4966451;28;20325;-45
2023/05/23 03:53:47;;;;;;;8.90;1.48;;;;;;;;;;4977011;28;20043;-44
2023/05/23 03:56:15;;;;;;;10.07;1.65;;;;;;;;;;4974730;28;20220;-45
2023/05/23 03:58:43;;;;;;;6.07;1.40;;;;;;;;;;4984595;28;20046;-45
2023/05/23 04:01:10;;;;;;;10.23;1.83;;;;;;;;;;4972714;28;20045;-46
2023/05/23 04:03:38;;;;;;;12.25;1.88;;;;;;;;;;4984327;28;20364;-45
2023/05/23 04:06:08;;;;;;;6.55;1.58;;;;;;;;;;4974780;28;20038;-46
2023/05/23 04:08:40;;;;;;;7.72;1.83;;;;;;;;;;4974800;28;20063;-45
2023/05/23 04:11:14;;;;;;;6.63;1.13;;;;;;;;;;4976777;28;20038;-45
2023/05/23 04:13:42;;;;;;;7.97;1.25;;;;;;;;;;4964422;28;20254;-45
2023/05/23 04:16:11;;;;;;;6.45;1.38;;;;;;;;;;4981207;28;20053;-46
2023/05/23 04:18:39;;;;;;;8.35;1.45;;;;;;;;;;4974398;28;20375;-44
2023/05/23 04:21:08;;;;;;;9.15;1.83;;;;;;;;;;4983905;28;20050;-44
2023/05/23 04:23:36;;;;;;;7.63;1.77;;;;;;;;;;4977528;28;20046;-46
2023/05/23 04:26:05;;;;;;;6.95;1.70;;;;;;;;;;4978475;28;21112;-45
2023/05/23 04:28:33;;;;;;;6.75;1.55;;;;;;;;;;4957065;28;20045;-44
2023/05/23 04:31:02;;;;;;;9.05;1.52;;;;;;;;;;4977912;28;20128;-48
2023/05/23 04:33:29;;;;;;;6.35;1.90;;;;;;;;;;4978728;28;20053;-44
2023/05/23 04:35:59;;;;;;;10.00;1.73;;;;;;;;;;4979951;28;20053;-47
2023/05/23 04:38:29;;;;;;;6.57;1.83;;;;;;;;;;4973097;28;20124;-45
2023/05/23 04:40:57;;;;;;;8.70;1.75;;;;;;;;;;4967978;28;20117;-44
2023/05/23 04:43:28;;;;;;;10.45;1.70;;;;;;;;;;4983617;28;20045;-45
2023/05/23 04:45:56;;;;;;;9.90;1.60;;;;;;;;;;4966147;28;20042;-46
2023/05/23 04:48:25;;;;;;;6.23;1.47;;;;;;;;;;4983204;28;20522;-45
2023/05/23 04:50:54;;;;;;;8.20;1.80;;;;;;;;;;4969249;28;20044;-44
2023/05/23 04:53:23;;;;;;;12.50;2.13;;;;;;;;;;4956433;28;20073;-45
2023/05/23 04:55:52;;;;;;;11.98;2.08;;;;;;;;;;4972539;28;20507;-45
2023/05/23 04:58:20;;;;;;;7.95;2.20;;;;;;;;;;4969999;28;20076;-46
2023/05/23 05:00:49;;;;;;;6.97;1.60;;;;;;;;;;4966101;28;20041;-45
2023/05/23 05:03:16;;;;;;;6.53;1.65;;;;;;;;;;4975313;28;20045;-45
2023/05/23 05:05:45;;;;;;;10.05;2.10;;;;;;;;;;4960571;28;20261;-44
2023/05/23 05:08:13;;;;;;;6.45;1.88;;;;;;;;;;4982710;28;20193;-47
2023/05/23 05:10:41;;;;;;;6.65;2.00;;;;;;;;;;4949111;28;20050;-46
2023/05/23 05:13:11;;;;;;;11.17;2.23;;;;;;;;;;4959259;28;20552;-48
2023/05/23 05:15:39;;;;;;;6.97;1.80;;;;;;;;;;4966697;28;20608;-49
2023/05/23 05:18:07;;;;;;;6.03;2.08;;;;;;;;;;4968660;28;20062;-50
2023/05/23 05:20:35;;;;;;;7.25;2.28;;;;;;;;;;4948313;28;20030;-47
2023/05/23 05:23:03;;;;;;;11.43;2.03;;;;;;;;;;4983654;28;20095;-49
2023/05/23 05:25:33;;;;;;;8.53;2.10;;;;;;;;;;4965914;28;20116;-47
2023/05/23 05:28:04;;;;;;;7.28;1.73;;;;;;;;;;4970757;28;20492;-47
2023/05/23 05:30:35;;;;;;;10.18;2.78;;;;;;;;;;4970179;28;20245;-48
2023/05/23 05:33:03;;;;;;;11.35;1.90;;;;;;;;;;4960016;28;20521;-44
2023/05/23 05:35:31;;;;;;;8.20;2.53;;;;;;;;;;4984889;28;20103;-46
2023/05/23 05:38:01;;;;;;;12.83;2.43;;;;;;;;;;4977378;28;20497;-47
2023/05/23 05:40:29;;;;;;;11.82;2.30;;;;;;;;;;4975810;28;20038;-46
2023/05/23 05:42:56;;;;;;;9.15;2.28;;;;;;;;;;4977441;28;20046;-47
2023/05/23 05:45:30;;;;;;;7.53;2.30;;;;;;;;;;4975418;28;20489;-46
2023/05/23 05:47:59;;;;;;;9.30;2.35;;;;;;;;;;4956939;28;20042;-46
2023/05/23 05:50:28;;;;;;;8.77;2.90;;;;;;;;;;4984761;28;20046;-47
2023/05/23 05:52:57;;;;;;;8.25;2.47;;;;;;;;;;4978377;28;20097;-48
2023/05/23 05:55:25;;;;;;;6.38;1.95;;;;;;;;;;4979856;28;20046;-44
2023/05/23 05:57:52;;;;;;;8.25;2.70;;;;;;;;;;4977236;28;20034;-46
2023/05/23 06:00:21;;;;;;;11.80;2.70;;;;;;;;;;4980324;28;20045;-45
2023/05/23 06:02:50;;;;;;;9.87;2.60;;;;;;;;;;4981571;28;20037;-46
2023/05/23 06:05:20;;;;;;;9.32;2.42;;;;;;;;;;4969245;28;20046;-45
2023/05/23 06:07:50;;;;;;;7.65;2.35;;;;;;;;;;4979857;28;20048;-46
2023/05/23 06:10:18;;;;;;;9.93;2.92;;;;;;;;;;4968827;28;20081;-44
2023/05/23 06:12:46;;;;;;;8.20;2.38;;;;;;;;;;4979831;28;20030;-48
2023/05/23 06:15:14;;;;;;;8.63;2.57;;;;;;;;;;4951191;28;20041;-45
2023/05/23 06:17:43;;;;;;;9.50;2.88;;;;;;;;;;4980181;28;20092;-46
2023/05/23 06:20:11;;;;;;;7.65;2.63;;;;;;;;;;4959949;28;20054;-45
2023/05/23 06:22:41;;;;;;;9.73;2.60;;;;;;;;;;4971672;28;20281;-44
2023/05/23 06:25:09;;;;;;;9.05;2.85;;;;;;;;;;4961399;28;20041;-46
2023/05/23 06:27:37;;;;;;;10.73;2.83;;;;;;;;;;4958445;28;20046;-45
2023/05/23 06:30:06;;;;;;;7.63;2.47;;;;;;;;;;4958786;28;20035;-45
2023/05/23 06:32:33;;;;;;;12.18;2.88;;;;;;;;;;4970645;28;20183;-46
2023/05/23 06:35:01;;;;;;;11.05;2.75;;;;;;;;;;4960027;28;20080;-45
2023/05/23 06:37:30;;;;;;;7.43;2.50;;;;;;;;;;4981664;28;20440;-45
2023/05/23 06:39:59;;;;;;;8.50;2.20;;;;;;;;;;4970672;28;20457;-47
2023/05/23 06:42:26;;;;;;;8.43;2.50;;;;;;;;;;4987181;28;20038;-50
2023/05/23 06:44:56;;;;;;;7.85;2.63;;;;;;;;;;4973974;28;20252;-49
2023/05/23 06:47:23;;;;;;;10.18;2.92;;;;;;;;;;4990812;28;20038;-47
2023/05/23 06:49:51;;;;;;;9.55;2.50;;;;;;;;;;4980446;28;20157;-45
2023/05/23 06:52:20;;;;;;;9.60;2.70;;;;;;;;;;4985618;28;20050;-47
2023/05/23 06:54:47;;;;;;;7.13;2.40;;;;;;;;;;4964557;28;20042;-50
2023/05/23 06:57:17;;;;;;;6.65;1.80;;;;;;;;;;4988090;28;20052;-46
2023/05/23 06:59:46;;;;;;;13.60;2.47;;;;;;;;;;4973055;28;20033;-49
2023/05/23 07:02:14;;;;;;;10.63;2.28;;;;;;;;;;4971837;28;20045;-45
2023/05/23 07:04:41;;;;;;;10.60;2.40;;;;;;;;;;4974181;28;20113;-47
2023/05/23 07:07:11;;;;;;;7.97;2.20;;;;;;;;;;4978743;28;20511;-45
2023/05/23 07:09:39;;;;;;;7.45;1.92;;;;;;;;;;4980024;28;20041;-47
2023/05/23 07:12:06;;;;;;;7.80;2.33;;;;;;;;;;4970889;28;20038;-45
2023/05/23 07:14:37;;;;;;;7.88;2.35;;;;;;;;;;4970996;28;20076;-45
2023/05/23 07:17:04;;;;;;;6.87;2.20;;;;;;;;;;4964826;28;20031;-46
2023/05/23 07:19:32;;;;;;;8.65;2.28;;;;;;;;;;4982163;28;20050;-45
2023/05/23 07:22:01;;;;;;;7.35;2.58;;;;;;;;;;4967229;28;20101;-45
2023/05/23 07:24:28;;;;;;;8.45;2.13;;;;;;;;;;4969257;28;20054;-47
2023/05/23 07:26:56;;;;;;;7.45;2.13;;;;;;;;;;4964677;28;20039;-45
2023/05/23 07:29:25;;;;;;;8.87;2.00;;;;;;;;;;4978937;28;20099;-48
2023/05/23 07:31:54;;;;;;;8.30;2.05;;;;;;;;;;4970446;28;20037;-45
2023/05/23 07:34:21;;;;;;;7.38;2.60;;;;;;;;;;4978993;28;21166;-46
2023/05/23 07:36:49;;;;;;;9.18;2.20;;;;;;;;;;4977811;28;20657;-45
2023/05/23 07:39:20;;;;;;;6.15;1.67;;;;;;;;;;4972925;28;20492;-45
2023/05/23 07:41:49;;;;;;;10.23;2.30;;;;;;;;;;4974826;28;20405;-47
2023/05/23 07:44:18;;;;;;;10.30;2.10;;;;;;;;;;4979157;28;20141;-45
2023/05/23 07:46:50;;;;;;;6.65;2.00;;;;;;;;;;4960644;28;20113;-49
2023/05/23 07:49:21;;;;;;;7.38;1.95;;;;;;;;;;4978676;28;20042;-49
2023/05/23 07:51:49;;;;;;;8.88;1.70;;;;;;;;;;4971338;28;20034;-49
2023/05/23 07:54:17;;;;;;;7.33;1.97;;;;;;;;;;4967674;28;20046;-45
2023/05/23 07:56:47;;;;;;;6.30;1.75;;;;;;;;;;4983227;28;20065;-48
2023/05/23 07:59:17;;;;;;;6.40;1.90;;;;;;;;;;4971023;28;20041;-47
2023/05/23 08:01:45;;;;;;;6.93;1.60;;;;;;;;;;4988682;28;20030;-45
2023/05/23 08:04:14;;;;;;;6.68;1.65;;;;;;;;;;4966952;28;20038;-48
2023/05/23 08:06:46;;;;;;;5.90;1.63;;;;;;;;;;4985372;28;20048;-45
2023/05/23 08:09:31;;;;;;;10.73;2.20;;;;;;;;;;4970444;28;20052;-45
2023/05/23 08:12:00;;;;;;;12.30;2.22;;;;;;;;;;4950069;28;20458;-46
2023/05/23 08:14:28;;;;;;;5.85;1.80;;;;;;;;;;4968270;28;20045;-44
2023/05/23 08:17:16;;;;;;;6.13;1.55;;;;;;;;;;4959993;28;20038;-45
2023/05/23 08:19:44;;;;;;;5.93;1.40;;;;;;;;;;4976587;28;20066;-45
2023/05/23 08:22:13;;;;;;;5.80;1.30;;;;;;;;;;4954079;28;20041;-44
2023/05/23 08:24:41;;;;;;;7.72;1.83;;;;;;;;;;4961365;28;20085;-45
2023/05/23 08:27:09;;;;;;;6.05;1.63;;;;;;;;;;4962005;28;20562;-45
2023/05/23 08:29:37;;;;;;;8.55;1.52;;;;;;;;;;4967663;28;20057;-45
2023/05/23 08:32:05;;;;;;;8.20;1.57;;;;;;;;;;4971317;28;20123;-45
2023/05/23 08:34:34;;;;;;;5.45;1.55;;;;;;;;;;4969776;28;20497;-45
2023/05/23 08:37:01;;;;;;;5.90;1.65;;;;;;;;;;4970207;28;20489;-48
2023/05/23 08:39:32;;;;;;;6.35;1.63;;;;;;;;;;4973389;28;20035;-46
2023/05/23 08:42:00;;;;;;;9.25;1.67;;;;;;;;;;4978156;28;20543;-47
2023/05/23 08:44:28;;;;;;;7.27;1.90;;;;;;;;;;4969145;28;20097;-48
2023/05/23 08:46:59;;;;;;;5.70;1.55;;;;;;;;;;4976708;28;20049;-47
2023/05/23 08:49:28;;;;;;;8.35;1.73;;;;;;;;;;4968900;28;20038;-46
2023/05/23 08:51:57;;;;;;;7.65;1.38;;;;;;;;;;4963646;28;20088;-46
2023/05/23 08:54:25;;;;;;;5.57;1.63;;;;;;;;;;4970231;28;22481;-46
2023/05/23 08:56:55;;;;;;;8.07;1.87;;;;;;;;;;4981447;28;20045;-46
2023/05/23 08:59:23;;;;;;;7.95;1.35;;;;;;;;;;4976773;28;20539;-45
2023/05/23 09:01:51;;;;;;;7.47;1.65;;;;;;;;;;4981192;28;20038;-45
2023/05/23 09:04:21;;;;;;;5.63;1.35;;;;;;;;;;4970889;28;20338;-45
2023/05/23 09:06:49;;;;;;;4.55;1.23;;;;;;;;;;4977616;28;20749;-45
2023/05/23 09:09:18;;;;;;;6.20;1.60;;;;;;;;;;4951717;28;20034;-45
2023/05/23 09:11:46;;;;;;;6.05;1.60;;;;;;;;;;4975100;28;20186;-47
2023/05/23 09:14:18;;;;;;;5.10;1.10;;;;;;;;;;4956578;28;22704;-45
2023/05/23 09:16:47;;;;;;;4.63;1.27;;;;;;;;;;4973996;28;20069;-46
2023/05/23 09:19:16;;;;;;;5.45;1.08;;;;;;;;;;4985162;28;20054;-48
2023/05/23 09:21:44;;;;;;;6.47;1.13;;;;;;;;;;4973385;28;20038;-50
2023/05/23 09:24:12;;;;;;;6.80;1.25;;;;;;;;;;4972575;28;20054;-46
2023/05/23 09:26:41;;;;;;;7.80;2.00;;;;;;;;;;4960459;28;21052;-47
2023/05/23 09:29:08;;;;;;;6.65;1.00;;;;;;;;;;4977918;28;20053;-44
2023/05/23 09:31:39;;;;;;;5.50;1.20;;;;;;;;;;4968778;28;20053;-45
2023/05/23 09:34:09;;;;;;;9.70;1.33;;;;;;;;;;4973582;28;20044;-47
2023/05/23 09:36:42;;;;;;;3.67;1.08;;;;;;;;;;4967653;28;20610;-45
2023/05/23 09:39:11;;;;;;;7.15;1.70;;;;;;;;;;4966160;28;20483;-45
2023/05/23 09:41:40;;;;;;;5.28;1.05;;;;;;;;;;4975705;28;20547;-48
2023/05/23 09:44:09;;;;;;;4.70;1.17;;;;;;;;;;4979422;28;20546;-46
2023/05/23 09:46:55;;;;;;;4.80;1.27;;;;;;;;;;4980701;28;20709;-47
2023/05/23 09:49:26;;;;;;;5.22;0.90;;;;;;;;;;4975300;28;21956;-45
2023/05/23 09:51:58;;;;;;;5.40;1.00;;;;;;;;;;4980637;28;20137;-46
2023/05/23 09:54:26;;;;;;;6.43;1.60;;;;;;;;;;4966076;28;20409;-48
2023/05/23 09:56:56;;;;;;;5.35;1.20;;;;;;;;;;4987478;28;20624;-48
2023/05/23 09:59:27;;;;;;;5.33;1.40;;;;;;;;;;4973158;28;20490;-45
2023/05/23 10:01:56;;;;;;;4.88;1.15;;;;;;;;;;4965598;28;20038;-47
2023/05/23 10:04:25;;;;;;;7.70;1.58;;;;;;;;;;4974544;28;20052;-46
2023/05/23 10:06:57;;;;;;;5.72;1.10;;;;;;;;;;4961998;28;20094;-46
2023/05/23 10:09:28;;;;;;;3.20;0.65;;;;;;;;;;4968931;28;20056;-47
2023/05/23 10:12:17;;;;;;;4.47;1.20;;;;;;;;;;4969817;28;20054;-50
2023/05/23 10:14:50;;;;;;;5.07;1.42;;;;;;;;;;4950019;28;20046;-49
2023/05/23 10:17:19;;;;;;;6.97;1.60;;;;;;;;;;4982562;28;20245;-49
2023/05/23 10:19:51;;;;;;;5.40;0.95;;;;;;;;;;4977581;28;20093;-48
2023/05/23 10:22:22;;;;;;;5.90;1.30;;;;;;;;;;4968212;28;20049;-48
2023/05/23 10:24:53;;;;;;;5.93;1.60;;;;;;;;;;4965734;28;20052;-45
2023/05/23 10:27:21;;;;;;;4.10;1.00;;;;;;;;;;4968804;28;20038;-48
2023/05/23 10:29:49;;;;;;;6.50;1.20;;;;;;;;;;4951469;28;20038;-45
2023/05/23 10:32:18;;;;;;;5.55;1.33;;;;;;;;;;4974236;28;20034;-48
2023/05/23 10:34:53;;;;;;;6.65;1.13;;;;;;;;;;4952245;28;20056;-48
2023/05/23 10:37:27;;;;;;;4.60;1.30;;;;;;;;;;4978024;28;20049;-45
2023/05/23 10:39:59;;;;;;;5.95;1.33;;;;;;;;;;4967955;28;20050;-46
2023/05/23 10:42:31;;;;;;;5.80;1.00;;;;;;;;;;4966875;28;20446;-48
2023/05/23 10:45:16;;;;;;;4.45;1.05;;;;;;;;;;4962646;28;20646;-45
2023/05/23 10:47:46;;;;;;;4.03;1.10;;;;;;;;;;4971692;28;20062;-48
2023/05/23 10:50:16;;;;;;;6.70;1.20;;;;;;;;;;4947446;28;20108;-47
2023/05/23 10:52:46;;;;;;;4.93;1.05;;;;;;;;;;4972885;28;20042;-47
2023/05/23 10:55:16;;;;;;;4.18;1.25;;;;;;;;;;4966603;28;20066;-45
2023/05/23 10:57:46;;;;;;;5.65;0.80;;;;;;;;;;4976706;28;20542;-47
2023/05/23 11:00:18;;;;;;;4.68;1.08;;;;;;;;;;4975638;28;20132;-45
2023/05/23 11:02:47;;;;;;;6.43;1.10;;;;;;;;;;4978668;28;20105;-46
2023/05/23 11:05:19;;;;;;;8.57;1.10;;;;;;;;;;4963103;28;20085;-46
2023/05/23 11:08:06;;;;;;;4.32;1.10;;;;;;;;;;4968244;28;20410;-49
2023/05/23 11:10:50;;;;;;;6.28;1.20;;;;;;;;;;4954152;28;20031;-49
2023/05/23 11:13:18;;;;;;;4.80;1.10;;;;;;;;;;4972350;28;20046;-48
2023/05/23 11:15:48;;;;;;;6.20;1.17;;;;;;;;;;4971020;28;20100;-46
2023/05/23 11:18:23;;;;;;;4.70;1.10;;;;;;;;;;4968510;28;20148;-45
2023/05/23 11:20:52;;;;;;;7.07;1.30;;;;;;;;;;4975886;28;20046;-46
2023/05/23 11:23:22;;;;;;;4.30;0.93;;;;;;;;;;4972806;28;20480;-44
2023/05/23 11:25:52;;;;;;;5.28;1.00;;;;;;;;;;4981360;28;20096;-44
2023/05/23 11:28:22;;;;;;;6.17;2.33;;;;;;;;;;4960822;28;20549;-43
2023/05/23 11:30:51;;;;;;;4.35;1.00;;;;;;;;;;4974717;28;20038;-44
2023/05/23 11:33:19;;;;;;;4.63;0.80;;;;;;;;;;4973549;28;20061;-44
2023/05/23 11:35:50;;;;;;;4.82;0.90;;;;;;;;;;4987946;28;20057;-44
2023/05/23 11:38:18;;;;;;;6.32;0.90;;;;;;;;;;4966776;28;20084;-45
2023/05/23 11:40:47;;;;;;;4.10;0.90;;;;;;;;;;4984566;28;20038;-47
2023/05/23 11:43:18;;;;;;;6.13;1.15;;;;;;;;;;4973612;28;20420;-46
2023/05/23 11:45:46;;;;;;;5.03;0.90;;;;;;;;;;4981217;28;20046;-44
2023/05/23 11:48:15;;;;;;;3.45;0.68;;;;;;;;;;4970949;28;20037;-45
2023/05/23 11:50:45;;;;;;;4.15;0.98;;;;;;;;;;4977545;28;20073;-47
2023/05/23 11:53:15;;;;;;;5.43;0.70;;;;;;;;;;4975446;28;20096;-45
2023/05/23 11:55:51;;;;;;;5.65;1.10;;;;;;;;;;4964831;28;20038;-45
2023/05/23 11:58:20;;;;;;;3.97;1.00;;;;;;;;;;4977279;28;20452;-46
2023/05/23 12:00:48;;;;;;;5.20;0.65;;;;;;;;;;4966778;28;20515;-45
2023/05/23 12:03:15;;;;;;;4.65;0.82;;;;;;;;;;4972362;28;20106;-45
2023/05/23 12:05:45;;;;;;;5.37;1.10;;;;;;;;;;4951299;28;20309;-47
2023/05/23 12:08:14;;;;;;;5.10;0.80;;;;;;;;;;4978034;28;20050;-46
2023/05/23 12:10:57;;;;;;;6.75;1.40;;;;;;;;;;4963225;28;20041;-46
2023/05/23 12:13:27;;;;;;;4.38;1.05;;;;;;;;;;4970534;28;20050;-45
2023/05/23 12:15:57;;;;;;;4.47;1.27;;;;;;;;;;4985016;28;20129;-47
2023/05/23 12:18:25;;;;;;;4.97;0.90;;;;;;;;;;4973895;28;20057;-45
2023/05/23 12:20:53;;;;;;;4.00;0.80;;;;;;;;;;4989467;28;20092;-45
2023/05/23 12:23:23;;;;;;;4.50;0.90;;;;;;;;;;4956200;28;20047;-45
2023/05/23 12:25:51;;;;;;;3.60;1.08;;;;;;;;;;4990726;28;20050;-45
2023/05/23 12:28:34;;;;;;;4.63;1.05;;;;;;;;;;4966489;28;21970;-46
2023/05/23 12:31:08;;;;;;;5.77;1.30;;;;;;;;;;4924375;28;20093;-46
2023/05/23 12:33:38;;;;;;;5.10;1.20;;;;;;;;;;4971908;28;20035;-47
2023/05/23 12:36:07;;;;;;;3.90;1.00;;;;;;;;;;4972115;28;20743;-46
2023/05/23 12:38:36;;;;;;;4.00;1.00;;;;;;;;;;4971228;28;20046;-47
2023/05/23 12:41:09;;;;;;;6.05;1.35;;;;;;;;;;4957539;28;20046;-46
2023/05/23 12:43:39;;;;;;;5.00;0.90;;;;;;;;;;4971803;28;20050;-46
2023/05/23 12:46:07;;;;;;;4.75;1.08;;;;;;;;;;4982380;28;20042;-46
2023/05/23 12:48:35;;;;;;;3.65;0.98;;;;;;;;;;4972113;28;20057;-46
2023/05/23 12:51:03;;;;;;;6.80;1.20;;;;;;;;;;4957237;28;20316;-45
2023/05/23 12:53:36;;;;;;;4.32;1.00;;;;;;;;;;4977634;28;20124;-44
2023/05/23 12:56:04;;;;;;;6.57;1.10;;;;;;;;;;4964261;28;20759;-46
2023/05/23 12:58:33;;;;;;;6.43;1.13;;;;;;;;;;4974275;28;20050;-46
2023/05/23 13:01:02;;;;;;;4.57;1.15;;;;;;;;;;4962294;28;21372;-46
2023/05/23 13:03:31;;;;;;;4.35;0.95;;;;;;;;;;4974368;28;20042;-45
2023/05/23 13:05:59;;;;;;;4.63;1.35;;;;;;;;;;4980147;28;20037;-46
2023/05/23 13:08:28;;;;;;;3.40;0.60;;;;;;;;;;4977472;28;20050;-44
2023/05/23 13:10:55;;;;;;;4.85;1.40;;;;;;;;;;4976598;28;20042;-44
2023/05/23 13:13:24;;;;;;;6.78;1.15;;;;;;;;;;4973965;28;20426;-44
2023/05/23 13:15:52;;;;;;;4.60;1.15;;;;;;;;;;4971574;28;20034;-46
2023/05/23 13:18:21;;;;;;;4.78;1.20;;;;;;;;;;4972503;28;20058;-46
2023/05/23 13:20:49;;;;;;;16.10;1.40;;;;;;;;;;4972421;28;20049;-44
2023/05/23 13:23:21;;;;;;;4.18;1.20;;;;;;;;;;4971174;28;20037;-45
2023/05/23 13:25:50;;;;;;;5.50;1.58;;;;;;;;;;4978833;28;20037;-48
2023/05/23 13:28:18;;;;;;;4.30;1.30;;;;;;;;;;4967982;28;20041;-44
2023/05/23 13:30:46;;;;;;;7.47;1.30;;;;;;;;;;4955338;28;20311;-46
2023/05/23 13:33:15;;;;;;;5.13;1.27;;;;;;;;;;4967005;28;20125;-45
2023/05/23 13:35:44;;;;;;;4.15;1.00;;;;;;;;;;4962002;28;20046;-45
2023/05/23 13:38:12;;;;;;;8.00;1.65;;;;;;;;;;4979110;28;20848;-45
2023/05/23 13:40:40;;;;;;;9.23;1.42;;;;;;;;;;4968373;28;20192;-46
2023/05/23 13:43:10;;;;;;;5.53;1.33;;;;;;;;;;4965766;28;20049;-45
2023/05/23 13:45:38;;;;;;;5.63;1.57;;;;;;;;;;4977928;28;20074;-50
2023/05/23 13:48:06;;;;;;;7.70;1.30;;;;;;;;;;4968074;28;20040;-46
2023/05/23 13:50:34;;;;;;;6.20;1.55;;;;;;;;;;4968168;28;20578;-46
2023/05/23 13:53:07;;;;;;;6.50;1.40;;;;;;;;;;4965947;28;20121;-47
2023/05/23 13:55:35;;;;;;;5.30;1.40;;;;;;;;;;4986914;28;20054;-46
2023/05/23 13:58:03;;;;;;;6.43;1.00;;;;;;;;;;4956576;28;20136;-45
2023/05/23 14:00:31;;;;;;;4.65;1.10;;;;;;;;;;4981685;28;20400;-46
2023/05/23 14:03:00;;;;;;;6.80;1.63;;;;;;;;;;4977345;28;20034;-45
2023/05/23 14:05:28;;;;;;;6.78;1.55;;;;;;;;;;4967585;28;20038;-46
2023/05/23 14:07:56;;;;;;;4.97;1.50;;;;;;;;;;4972926;28;20050;-45
2023/05/23 14:10:25;;;;;;;6.40;1.40;;;;;;;;;;4950572;28;20053;-45
2023/05/23 14:12:53;;;;;;;6.53;1.30;;;;;;;;;;4975694;28;20092;-47
2023/05/23 14:15:22;;;;;;;6.30;1.67;;;;;;;;;;4965869;28;20345;-45
2023/05/23 14:17:54;;;;;;;6.97;1.50;;;;;;;;;;4975672;28;20056;-46
2023/05/23 14:20:22;;;;;;;4.30;0.90;;;;;;;;;;4970497;28;20105;-48
2023/05/23 14:22:50;;;;;;;5.87;1.37;;;;;;;;;;4961193;28;20488;-46
2023/05/23 14:25:18;;;;;;;7.28;1.20;;;;;;;;;;4970105;28;20121;-46
2023/05/23 14:27:47;;;;;;;6.00;1.38;;;;;;;;;;4969750;28;20030;-46
2023/05/23 14:30:17;;;;;;;5.20;1.27;;;;;;;;;;4976934;28;20038;-47
2023/05/23 14:32:46;;;;;;;4.85;1.25;;;;;;;;;;4973802;28;20031;-47
2023/05/23 14:35:15;;;;;;;4.53;1.10;;;;;;;;;;4969431;28;20042;-45
2023/05/23 14:37:45;;;;;;;4.95;1.20;;;;;;;;;;4973972;28;20050;-45
2023/05/23 14:40:15;;;;;;;5.72;1.50;;;;;;;;;;4974415;28;20070;-45
2023/05/23 14:42:43;;;;;;;7.20;1.83;;;;;;;;;;4989732;28;20137;-46
2023/05/23 14:45:12;;;;;;;8.50;1.77;;;;;;;;;;4947504;28;20160;-45
2023/05/23 14:47:43;;;;;;;5.03;1.13;;;;;;;;;;4971076;28;20038;-45
2023/05/23 14:50:11;;;;;;;4.60;1.20;;;;;;;;;;4973441;28;20234;-44
2023/05/23 14:52:40;;;;;;;6.53;1.08;;;;;;;;;;4975405;28;20045;-44
2023/05/23 14:55:08;;;;;;;5.82;1.45;;;;;;;;;;4961187;28;20057;-47